Chestnut Hill, North Carolina
Current Conditions -  °F | °C
As of 5:55 AM on Friday 19 Dec 2014 (Local Time) from KGEV Reporting Station
Overcast Overcast  
Wind Chill: 26°   Ceiling: 3700
Heat Index: 33°   Visibility: 10mi
Dew Point: 15°   Wind: 8mph
Humidity: 47%   Direction: 260°W
Pressure: 30.06"   Gusts: NA
Location:  36.484°N, 81.3801°W
Report Text: KGEV 191055Z AUTO 26007KT 10SM OVC037 01/M10 A3006 RMK AO2 T00051096
Loading
Personal Weather Stations






























Interactive Weather Map New forecast layout! Learn more

10-Day Weather Forecast

Advertisements
Track Severe Weather on mobile